Time;durP1;ratioP1;P1;durP2;ratioP2;P2;SDS_P1;SDS_P2;PMS_P1;PMS_P2;Temp;Humidity;BMP_temperature;BMP_pressure;BME280_temperature;BME280_humidity;BME280_pressure;Samples;Min_cycle;Max_cycle;Signal;HPM_P1;HPM_P2
2022/06/30 00:01:34;;;;;;;15.20;4.03;;;14.00;99.90;;;;;;5043068;28;20029;-68
2022/06/30 00:04:00;;;;;;;8.55;2.40;;;14.00;99.90;;;;;;5046079;28;20025;-69
2022/06/30 00:06:26;;;;;;;10.52;3.20;;;13.90;99.90;;;;;;5042733;28;20399;-68
2022/06/30 00:08:52;;;;;;;11.43;3.10;;;13.80;99.90;;;;;;5038126;28;20087;-68
2022/06/30 00:11:19;;;;;;;16.70;3.55;;;13.80;99.90;;;;;;5046842;28;20033;-69
2022/06/30 00:13:44;;;;;;;10.57;3.50;;;13.80;99.90;;;;;;5038099;28;20033;-69
2022/06/30 00:16:10;;;;;;;10.23;3.47;;;13.70;99.90;;;;;;5061096;28;20098;-68
2022/06/30 00:18:37;;;;;;;10.40;3.92;;;13.70;99.90;;;;;;5044701;28;20132;-69
2022/06/30 00:21:03;;;;;;;10.18;3.60;;;13.70;99.90;;;;;;5043312;28;20119;-68
2022/06/30 00:23:29;;;;;;;10.38;3.10;;;13.60;99.90;;;;;;5032554;28;20041;-68
2022/06/30 00:25:55;;;;;;;12.57;4.15;;;13.60;99.90;;;;;;5044432;28;20028;-69
2022/06/30 00:28:21;;;;;;;10.18;3.60;;;13.60;99.90;;;;;;5038418;28;20067;-68
2022/06/30 00:30:47;;;;;;;12.75;3.63;;;13.60;99.90;;;;;;5044828;28;20417;-68
2022/06/30 00:33:13;;;;;;;8.93;3.25;;;13.60;99.90;;;;;;5039153;28;20048;-69
2022/06/30 00:35:39;;;;;;;10.75;4.05;;;13.60;99.90;;;;;;5044398;28;20076;-69
2022/06/30 00:38:05;;;;;;;12.45;4.32;;;13.60;99.90;;;;;;5039462;28;20515;-68
2022/06/30 00:40:38;;;;;;;13.05;3.95;;;13.60;99.90;;;;;;5048869;28;20711;-69
2022/06/30 00:43:04;;;;;;;9.60;3.60;;;13.60;99.90;;;;;;5033103;28;20039;-69
2022/06/30 00:45:31;;;;;;;15.60;4.20;;;13.50;99.90;;;;;;5050121;28;20036;-69
2022/06/30 00:47:58;;;;;;;9.30;3.65;;;13.50;99.90;;;;;;5034932;28;20025;-69
2022/06/30 00:50:23;;;;;;;11.93;4.00;;;13.50;99.90;;;;;;5045289;28;20036;-68
2022/06/30 00:52:53;;;;;;;17.95;4.53;;;13.50;99.90;;;;;;5042615;28;20025;-68
2022/06/30 00:55:19;;;;;;;15.10;4.13;;;13.50;99.90;;;;;;5036368;28;20132;-68
2022/06/30 00:57:46;;;;;;;10.50;4.05;;;13.50;99.90;;;;;;5042961;28;20040;-68
2022/06/30 01:00:13;;;;;;;10.23;4.25;;;13.40;99.90;;;;;;5031792;28;20129;-68
2022/06/30 01:02:39;;;;;;;12.90;4.32;;;13.40;99.90;;;;;;5042270;28;20037;-69
2022/06/30 01:05:06;;;;;;;13.85;4.32;;;13.40;99.90;;;;;;5034968;28;20033;-68
2022/06/30 01:07:33;;;;;;;13.25;4.25;;;13.40;99.90;;;;;;5032695;28;20104;-69
2022/06/30 01:12:46;;;;;;;6.25;2.13;;;13.30;99.90;;;;;;5029055;28;20119;-69
2022/06/30 01:15:16;;;;;;;7.72;2.88;;;13.30;99.90;;;;;;5034329;28;20044;-69
2022/06/30 01:17:43;;;;;;;9.43;3.30;;;13.30;99.90;;;;;;5033310;28;20637;-69
2022/06/30 01:20:10;;;;;;;9.35;2.97;;;13.30;99.90;;;;;;5034250;28;20519;-68
2022/06/30 01:22:36;;;;;;;13.38;4.00;;;13.20;99.90;;;;;;5037516;28;20029;-69
2022/06/30 01:25:03;;;;;;;8.63;3.25;;;13.20;99.90;;;;;;5041678;28;20036;-68
2022/06/30 01:27:29;;;;;;;13.20;3.92;;;13.20;99.90;;;;;;5031996;28;20087;-68
2022/06/30 01:29:55;;;;;;;10.70;3.65;;;13.10;99.90;;;;;;5035352;28;20033;-68
2022/06/30 01:32:21;;;;;;;9.15;3.78;;;13.10;99.90;;;;;;5041351;28;20029;-68
2022/06/30 01:34:47;;;;;;;8.02;3.50;;;13.10;99.90;;;;;;5032196;28;20479;-68
2022/06/30 01:37:13;;;;;;;12.23;3.83;;;13.20;99.90;;;;;;5034126;28;20047;-68
2022/06/30 01:39:39;;;;;;;9.15;3.60;;;13.10;99.90;;;;;;5040649;28;20022;-68
2022/06/30 01:42:05;;;;;;;10.23;3.80;;;13.10;99.90;;;;;;5028192;28;20037;-68
2022/06/30 01:44:30;;;;;;;8.55;3.42;;;13.10;99.90;;;;;;5041066;28;20110;-67
2022/06/30 01:46:56;;;;;;;12.38;3.70;;;13.10;99.90;;;;;;5031764;28;20025;-68
2022/06/30 01:49:22;;;;;;;13.70;3.83;;;13.10;99.90;;;;;;5044328;28;20075;-68
2022/06/30 01:51:47;;;;;;;7.53;2.40;;;13.20;99.90;;;;;;5039132;28;20033;-68
2022/06/30 01:54:13;;;;;;;8.77;2.40;;;13.10;99.90;;;;;;5044291;28;20574;-68
2022/06/30 01:56:39;;;;;;;9.38;4.07;;;13.10;99.90;;;;;;5032361;28;20454;-68
2022/06/30 01:59:05;;;;;;;9.70;3.92;;;13.10;99.90;;;;;;5039306;28;20246;-67
2022/06/30 02:01:32;;;;;;;9.27;4.20;;;13.10;99.90;;;;;;5027023;28;20103;-68
2022/06/30 02:04:46;;;;;;;9.55;4.10;;;13.10;99.90;;;;;;5035530;28;20036;-68
2022/06/30 02:06:44;;;;;;;11.75;3.97;;;13.10;99.90;;;;;;5037676;28;20760;-68
2022/06/30 02:09:10;;;;;;;10.57;4.18;;;13.00;99.90;;;;;;5028382;28;20022;-67
2022/06/30 02:11:36;;;;;;;8.95;3.97;;;13.10;99.90;;;;;;5038062;28;20048;-69
2022/06/30 02:14:02;;;;;;;12.25;4.22;;;13.00;99.90;;;;;;5045088;28;20033;-68
2022/06/30 02:16:27;;;;;;;11.60;4.60;;;13.00;99.90;;;;;;5043438;28;20398;-68
2022/06/30 02:18:53;;;;;;;9.95;4.22;;;13.00;99.90;;;;;;5043709;28;20037;-69
2022/06/30 02:21:19;;;;;;;9.98;4.47;;;13.00;99.90;;;;;;5041438;28;20033;-69
2022/06/30 02:23:45;;;;;;;11.13;4.80;;;13.00;99.90;;;;;;5044872;28;20021;-69
2022/06/30 02:26:11;;;;;;;10.02;4.10;;;13.00;99.90;;;;;;5038478;28;20029;-68
2022/06/30 02:28:36;;;;;;;10.52;3.72;;;13.10;99.90;;;;;;5041440;28;20547;-69
2022/06/30 02:31:03;;;;;;;7.05;3.60;;;13.10;99.90;;;;;;5043672;28;20036;-68
2022/06/30 02:33:28;;;;;;;9.55;3.90;;;13.10;99.90;;;;;;5038705;28;20033;-69
2022/06/30 02:35:54;;;;;;;6.70;2.90;;;13.10;99.90;;;;;;5044055;28;20057;-69
2022/06/30 02:38:20;;;;;;;6.88;2.50;;;13.10;99.90;;;;;;5032843;28;20048;-68
2022/06/30 02:40:45;;;;;;;5.50;1.90;;;13.10;99.90;;;;;;5041285;28;20038;-68
2022/06/30 02:43:12;;;;;;;6.03;2.40;;;13.10;99.90;;;;;;5043914;28;20041;-68
2022/06/30 02:45:37;;;;;;;7.15;2.70;;;13.10;99.90;;;;;;5030987;28;20048;-68
2022/06/30 02:48:03;;;;;;;9.05;3.50;;;13.00;99.90;;;;;;5034745;28;20104;-68
2022/06/30 02:50:29;;;;;;;8.52;3.25;;;13.00;99.90;;;;;;5029992;28;20048;-68
2022/06/30 02:52:55;;;;;;;8.57;3.05;;;13.10;99.90;;;;;;5039754;28;20029;-68
2022/06/30 02:55:21;;;;;;;7.63;2.80;;;13.10;99.90;;;;;;5030734;28;20084;-68
2022/06/30 02:57:47;;;;;;;8.65;3.40;;;13.10;99.90;;;;;;5034977;28;20056;-68
2022/06/30 03:00:14;;;;;;;10.38;3.67;;;13.10;99.90;;;;;;5046393;28;20040;-68
2022/06/30 03:02:40;;;;;;;9.70;3.03;;;13.20;99.90;;;;;;5032184;28;20030;-68
2022/06/30 03:05:07;;;;;;;9.48;3.40;;;13.20;99.90;;;;;;5036722;28;20056;-68
2022/06/30 03:07:33;;;;;;;9.57;2.75;;;13.20;99.90;;;;;;5033055;28;20045;-68
2022/06/30 03:09:59;;;;;;;8.32;2.75;;;13.10;99.90;;;;;;5040151;28;20028;-68
2022/06/30 03:12:25;;;;;;;9.60;3.10;;;13.10;99.90;;;;;;5044568;28;20037;-69
2022/06/30 03:14:50;;;;;;;7.38;2.58;;;13.10;99.90;;;;;;5044798;28;20044;-69
2022/06/30 03:17:16;;;;;;;10.15;2.70;;;13.10;99.90;;;;;;5035826;28;20670;-69
2022/06/30 03:19:42;;;;;;;7.00;2.63;;;13.10;99.90;;;;;;5044471;28;20037;-68
2022/06/30 03:22:08;;;;;;;8.80;2.63;;;13.10;99.90;;;;;;5042663;28;20372;-69
2022/06/30 03:24:33;;;;;;;6.05;2.60;;;13.10;99.90;;;;;;5044722;28;20131;-68
2022/06/30 03:26:59;;;;;;;7.75;2.80;;;13.10;99.90;;;;;;5032259;28;20029;-68
2022/06/30 03:29:25;;;;;;;8.88;2.58;;;13.10;99.90;;;;;;5041058;28;20390;-69
2022/06/30 03:31:50;;;;;;;7.55;2.10;;;13.00;99.90;;;;;;5050846;28;20142;-69
2022/06/30 03:34:16;;;;;;;6.88;2.25;;;13.10;99.90;;;;;;5038666;28;20149;-69
2022/06/30 03:36:41;;;;;;;7.32;2.30;;;13.10;99.90;;;;;;5035621;28;20041;-68
2022/06/30 03:39:08;;;;;;;7.47;2.45;;;13.10;99.90;;;;;;5032631;28;20564;-68
2022/06/30 03:41:34;;;;;;;6.43;2.75;;;13.10;99.90;;;;;;5032744;28;20033;-71
2022/06/30 03:43:59;;;;;;;9.13;3.08;;;13.10;99.90;;;;;;5029101;28;20385;-71
2022/06/30 03:46:25;;;;;;;11.45;3.60;;;13.10;99.90;;;;;;5030047;28;20041;-70
2022/06/30 03:48:51;;;;;;;7.57;3.30;;;13.10;99.90;;;;;;5035574;28;20034;-70
2022/06/30 03:51:17;;;;;;;8.60;3.83;;;13.10;99.90;;;;;;5037581;28;20037;-70
2022/06/30 03:53:43;;;;;;;8.30;3.35;;;13.10;99.90;;;;;;5044470;28;20032;-69
2022/06/30 03:56:09;;;;;;;10.40;3.70;;;13.10;99.90;;;;;;5039901;28;20037;-69
2022/06/30 03:58:34;;;;;;;9.57;3.47;;;13.10;99.90;;;;;;5047449;28;20036;-69
2022/06/30 04:01:00;;;;;;;11.48;3.90;;;13.20;99.90;;;;;;5040042;28;20082;-69
2022/06/30 04:03:26;;;;;;;11.85;3.92;;;13.20;99.90;;;;;;5050763;28;20040;-69
2022/06/30 04:05:52;;;;;;;12.10;4.38;;;13.10;99.90;;;;;;5036155;28;20036;-69
2022/06/30 04:08:18;;;;;;;12.10;4.22;;;13.10;99.90;;;;;;5051459;28;20025;-69
2022/06/30 04:10:43;;;;;;;13.48;4.20;;;13.10;99.90;;;;;;5048133;28;20418;-69
2022/06/30 04:13:09;;;;;;;10.15;4.05;;;13.10;99.90;;;;;;5043495;28;20041;-69
2022/06/30 04:15:35;;;;;;;11.20;4.30;;;13.10;99.90;;;;;;5048753;28;20033;-69
2022/06/30 04:18:01;;;;;;;8.95;4.10;;;13.10;99.90;;;;;;5050996;28;20047;-69
2022/06/30 04:20:27;;;;;;;12.48;4.28;;;13.10;99.90;;;;;;5042659;28;20040;-69
2022/06/30 04:22:53;;;;;;;11.77;4.00;;;13.10;99.90;;;;;;5030855;28;20093;-69
2022/06/30 04:25:19;;;;;;;13.80;4.00;;;13.10;99.90;;;;;;5040139;28;20064;-69
2022/06/30 04:27:50;;;;;;;11.45;4.22;;;13.10;99.90;;;;;;5026797;28;20033;-69
2022/06/30 04:32:37;;;;;;;15.95;4.43;;;13.10;99.90;;;;;;5032812;28;20033;-69
2022/06/30 04:33:03;;;;;;;10.75;4.45;;;13.10;99.90;;;;;;5036915;28;20035;-69
2022/06/30 04:35:28;;;;;;;8.45;4.10;;;13.20;99.90;;;;;;5044983;28;20079;-69
2022/06/30 04:37:58;;;;;;;11.60;4.18;;;13.20;99.90;;;;;;5037301;28;20115;-69
2022/06/30 04:43:09;;;;;;;10.15;4.50;;;13.20;99.90;;;;;;5032720;28;20032;-69
2022/06/30 04:45:34;;;;;;;11.20;4.05;;;13.20;99.90;;;;;;5032769;28;20033;-69
2022/06/30 04:48:00;;;;;;;8.07;3.38;;;13.20;99.90;;;;;;5032553;28;20474;-69
2022/06/30 04:50:26;;;;;;;12.20;4.93;;;13.20;99.90;;;;;;5040907;28;20107;-69
2022/06/30 04:52:51;;;;;;;13.38;4.03;;;13.20;99.90;;;;;;5035249;28;20033;-69
2022/06/30 04:55:17;;;;;;;8.68;4.38;;;13.20;99.90;;;;;;5045319;28;20037;-70
2022/06/30 04:57:43;;;;;;;9.98;4.38;;;13.10;99.90;;;;;;5036090;28;20494;-68
2022/06/30 05:00:09;;;;;;;13.48;4.68;;;13.10;99.90;;;;;;5043567;28;20044;-69
2022/06/30 05:02:34;;;;;;;11.25;4.70;;;13.10;99.90;;;;;;5039363;28;20029;-69
2022/06/30 05:05:00;;;;;;;16.45;6.10;;;13.10;99.90;;;;;;5032222;28;20040;-69
2022/06/30 05:07:26;;;;;;;14.23;6.05;;;13.10;99.90;;;;;;5040958;28;20143;-68
2022/06/30 05:09:51;;;;;;;11.68;5.38;;;13.10;99.90;;;;;;5049898;28;20116;-68
2022/06/30 05:12:17;;;;;;;13.95;6.10;;;13.10;99.90;;;;;;5043971;28;20102;-67
2022/06/30 05:14:43;;;;;;;13.50;6.55;;;13.10;99.90;;;;;;5030229;28;20082;-68
2022/06/30 05:17:08;;;;;;;12.40;5.80;;;13.10;99.90;;;;;;5032343;28;20095;-68
2022/06/30 05:19:34;;;;;;;11.82;4.97;;;13.00;99.90;;;;;;5045637;28;20029;-68
2022/06/30 05:22:00;;;;;;;11.30;4.43;;;13.00;99.90;;;;;;5040557;28;20108;-68
2022/06/30 05:27:10;;;;;;;10.10;3.40;;;12.90;99.90;;;;;;5041743;28;20386;-68
2022/06/30 05:29:36;;;;;;;10.65;3.22;;;13.00;99.90;;;;;;5048073;28;20036;-69
2022/06/30 05:32:01;;;;;;;11.07;4.28;;;13.00;99.90;;;;;;5047723;28;20033;-68
2022/06/30 05:34:27;;;;;;;14.65;4.82;;;13.00;99.90;;;;;;5040308;28;20033;-68
2022/06/30 05:36:53;;;;;;;15.70;5.32;;;13.00;99.90;;;;;;5048606;28;20118;-69
2022/06/30 05:39:18;;;;;;;14.65;5.10;;;13.10;99.90;;;;;;5035389;28;20166;-68
2022/06/30 05:41:44;;;;;;;12.18;4.82;;;13.00;99.90;;;;;;5048175;28;20032;-69
2022/06/30 05:44:10;;;;;;;15.70;5.32;;;13.00;99.90;;;;;;5036598;28;20028;-68
2022/06/30 05:46:36;;;;;;;12.40;4.88;;;13.10;99.90;;;;;;5052575;28;20936;-69
2022/06/30 05:49:03;;;;;;;11.98;4.10;;;13.10;99.90;;;;;;5046772;28;20021;-69
2022/06/30 05:51:28;;;;;;;14.80;5.80;;;13.10;99.90;;;;;;5059390;28;20682;-69
2022/06/30 05:53:54;;;;;;;13.68;5.30;;;13.10;99.90;;;;;;5054415;28;20040;-69
2022/06/30 05:56:20;;;;;;;12.93;5.53;;;13.20;99.90;;;;;;5054559;28;20036;-69
2022/06/30 05:58:45;;;;;;;18.55;5.53;;;13.20;99.90;;;;;;5047138;28;20058;-69
2022/06/30 06:01:11;;;;;;;14.80;5.05;;;13.20;99.90;;;;;;5051133;28;20035;-69
2022/06/30 06:03:37;;;;;;;11.63;5.00;;;13.20;99.90;;;;;;5038981;28;20064;-69
2022/06/30 06:06:03;;;;;;;15.88;5.07;;;13.30;99.90;;;;;;5042714;28;20075;-68
2022/06/30 06:08:28;;;;;;;11.95;4.78;;;13.30;99.90;;;;;;5048160;28;20085;-68
2022/06/30 06:10:54;;;;;;;12.82;4.88;;;13.40;99.90;;;;;;5043276;28;20037;-69
2022/06/30 06:13:20;;;;;;;9.38;4.07;;;13.40;99.90;;;;;;5041979;28;20037;-69
2022/06/30 06:15:46;;;;;;;12.00;5.10;;;13.40;99.90;;;;;;5048746;28;20246;-69
2022/06/30 06:18:11;;;;;;;17.02;5.57;;;13.50;99.90;;;;;;5049969;28;20071;-69
2022/06/30 06:20:37;;;;;;;10.52;4.25;;;13.50;99.90;;;;;;5039959;28;20120;-69
2022/06/30 06:23:03;;;;;;;11.80;4.60;;;13.50;99.90;;;;;;5045296;28;20037;-69
2022/06/30 06:25:28;;;;;;;9.63;4.28;;;13.60;99.90;;;;;;5045517;28;20507;-69
2022/06/30 06:30:38;;;;;;;11.77;4.30;;;13.80;99.90;;;;;;5041100;28;20045;-69
2022/06/30 06:33:04;;;;;;;12.65;3.55;;;13.80;99.90;;;;;;5050115;28;20036;-69
2022/06/30 06:35:29;;;;;;;9.23;2.85;;;13.90;99.90;;;;;;5050345;28;20049;-67
2022/06/30 06:37:55;;;;;;;8.57;2.25;;;14.00;99.90;;;;;;5051085;28;20090;-69
2022/06/30 06:40:21;;;;;;;15.93;4.43;;;14.00;99.90;;;;;;5044252;28;20111;-70
2022/06/30 06:42:46;;;;;;;8.70;2.85;;;14.00;99.90;;;;;;5050852;28;20047;-69
2022/06/30 06:45:12;;;;;;;10.23;3.05;;;14.00;99.90;;;;;;5047689;28;20036;-69
2022/06/30 06:47:38;;;;;;;7.88;2.58;;;14.00;99.90;;;;;;5045462;28;20030;-69
2022/06/30 06:50:06;;;;;;;11.93;2.60;;;14.10;99.90;;;;;;5046283;28;20566;-70
2022/06/30 06:52:32;;;;;;;9.13;2.10;;;14.00;99.90;;;;;;5041554;28;20040;-68
2022/06/30 06:54:58;;;;;;;8.20;2.30;;;14.00;99.90;;;;;;5037054;28;20064;-69
2022/06/30 06:57:24;;;;;;;8.57;2.53;;;14.00;99.90;;;;;;5036069;28;20037;-69
2022/06/30 06:59:49;;;;;;;10.73;2.67;;;14.00;99.90;;;;;;5034552;28;20025;-70
2022/06/30 07:02:15;;;;;;;10.07;2.60;;;14.00;99.90;;;;;;5046617;28;20064;-70
2022/06/30 07:04:41;;;;;;;7.53;2.28;;;13.90;99.90;;;;;;5036264;28;20117;-70
2022/06/30 07:07:06;;;;;;;11.75;2.83;;;13.90;99.90;;;;;;5034620;28;20060;-68
2022/06/30 07:09:32;;;;;;;5.50;2.30;;;13.90;99.90;;;;;;5044991;28;20121;-70
2022/06/30 07:11:58;;;;;;;8.55;2.20;;;13.90;99.90;;;;;;5041357;28;20095;-70
2022/06/30 07:14:23;;;;;;;11.82;2.55;;;13.80;99.90;;;;;;5039372;28;20498;-70
2022/06/30 07:16:49;;;;;;;9.35;3.03;;;13.80;99.90;;;;;;5044625;28;20029;-69
2022/06/30 07:19:15;;;;;;;10.60;3.28;;;13.80;99.90;;;;;;5037000;28;20116;-69
2022/06/30 07:21:41;;;;;;;8.55;3.17;;;13.70;99.90;;;;;;5035534;28;20060;-68
2022/06/30 07:24:07;;;;;;;7.78;2.58;;;13.80;99.90;;;;;;5048662;28;20037;-68
2022/06/30 07:26:32;;;;;;;9.77;3.10;;;13.80;99.90;;;;;;5044221;28;20029;-68
2022/06/30 07:28:58;;;;;;;8.15;2.13;;;13.80;99.90;;;;;;5045667;28;20086;-68
2022/06/30 07:31:24;;;;;;;8.98;2.47;;;13.80;99.90;;;;;;5036264;28;20052;-69
2022/06/30 07:33:49;;;;;;;8.68;2.63;;;13.80;99.90;;;;;;5034948;28;20041;-69
2022/06/30 07:36:16;;;;;;;9.82;2.40;;;13.90;99.90;;;;;;5042723;28;20057;-68
2022/06/30 07:38:43;;;;;;;8.32;2.22;;;13.90;99.90;;;;;;5044867;28;20033;-71
2022/06/30 07:41:08;;;;;;;8.23;2.38;;;14.00;99.90;;;;;;5048711;28;20134;-72
2022/06/30 07:43:34;;;;;;;8.93;2.30;;;14.00;99.90;;;;;;5040382;28;20115;-71
2022/06/30 07:46:00;;;;;;;7.82;1.70;;;14.00;99.90;;;;;;5042405;28;20575;-70
2022/06/30 07:48:25;;;;;;;10.45;2.20;;;14.10;99.90;;;;;;5043030;28;20390;-71
2022/06/30 07:50:51;;;;;;;9.13;2.35;;;14.20;99.90;;;;;;5040771;28;20025;-69
2022/06/30 07:53:16;;;;;;;5.68;1.50;;;14.30;99.90;;;;;;5045523;28;20047;-70
2022/06/30 07:55:42;;;;;;;9.68;1.50;;;14.30;99.90;;;;;;5039445;28;20040;-69
2022/06/30 07:58:08;;;;;;;6.90;1.60;;;14.30;99.90;;;;;;5039656;28;20040;-69
2022/06/30 08:00:34;;;;;;;7.63;1.27;;;14.30;99.90;;;;;;5038692;28;20040;-69
2022/06/30 08:03:00;;;;;;;9.15;1.92;;;14.40;99.90;;;;;;5044319;28;20373;-69
2022/06/30 08:05:26;;;;;;;8.40;1.60;;;14.40;99.90;;;;;;5039306;28;20037;-69
2022/06/30 08:07:51;;;;;;;10.23;1.95;;;14.40;99.90;;;;;;5035738;28;20389;-69
2022/06/30 08:10:17;;;;;;;7.90;1.60;;;14.50;99.90;;;;;;5052935;28;20498;-69
2022/06/30 08:12:43;;;;;;;7.22;2.05;;;14.50;99.90;;;;;;5043031;28;20497;-68
2022/06/30 08:15:09;;;;;;;9.07;1.52;;;14.60;99.90;;;;;;5035518;28;20091;-69
2022/06/30 08:17:35;;;;;;;6.20;1.38;;;14.60;99.90;;;;;;5037383;28;20028;-70
2022/06/30 08:20:01;;;;;;;6.00;1.20;;;14.70;99.90;;;;;;5037979;28;20040;-70
2022/06/30 08:22:27;;;;;;;7.57;1.63;;;14.70;99.90;;;;;;5037668;28;20399;-69
2022/06/30 08:24:53;;;;;;;4.85;1.30;;;14.70;99.90;;;;;;5035348;28;20036;-70
2022/06/30 08:27:18;;;;;;;8.02;1.40;;;14.80;99.90;;;;;;5033969;28;20479;-70
2022/06/30 08:29:44;;;;;;;4.68;0.75;;;14.90;99.90;;;;;;5037323;28;20036;-71
2022/06/30 08:32:10;;;;;;;5.15;1.00;;;14.90;99.90;;;;;;5036354;28;20471;-69
2022/06/30 08:34:35;;;;;;;5.70;1.20;;;14.90;99.90;;;;;;5033861;28;20045;-71
2022/06/30 08:37:01;;;;;;;5.18;0.98;;;14.90;99.90;;;;;;5037318;28;20076;-69
2022/06/30 08:42:13;;;;;;;5.22;0.98;;;14.90;99.90;;;;;;5042679;28;20036;-71
2022/06/30 08:44:42;;;;;;;3.85;1.10;;;14.90;99.90;;;;;;5041909;28;20025;-69
2022/06/30 08:47:08;;;;;;;9.70;1.35;;;14.90;99.90;;;;;;5040767;28;20037;-71
2022/06/30 08:49:35;;;;;;;6.72;1.35;;;14.90;99.90;;;;;;5031556;28;20087;-70
2022/06/30 08:52:01;;;;;;;5.03;1.20;;;14.90;99.90;;;;;;5037492;28;20029;-70
2022/06/30 08:54:28;;;;;;;5.90;1.23;;;14.90;99.90;;;;;;5042874;28;20040;-71
2022/06/30 08:56:56;;;;;;;9.35;1.80;;;14.80;99.90;;;;;;5031689;28;20048;-70
2022/06/30 08:59:24;;;;;;;6.85;1.52;;;14.80;99.90;;;;;;5027164;28;20060;-69
2022/06/30 09:01:50;;;;;;;7.88;1.33;;;14.90;99.90;;;;;;5028274;28;20041;-71
2022/06/30 09:04:16;;;;;;;6.45;1.13;;;14.90;99.90;;;;;;5034202;28;20106;-68
2022/06/30 09:06:45;;;;;;;6.15;1.40;;;14.90;99.90;;;;;;5036090;28;20391;-68
2022/06/30 09:09:11;;;;;;;5.73;1.10;;;14.90;99.90;;;;;;5042566;28;20079;-68
2022/06/30 09:11:53;;;;;;;3.58;0.93;;;14.90;99.90;;;;;;5031444;28;20262;-69
2022/06/30 09:14:40;;;;;;;6.97;1.30;;;15.00;99.90;;;;;;5033792;28;20071;-69
2022/06/30 09:17:26;;;;;;;6.03;0.90;;;15.00;99.90;;;;;;5038990;28;20088;-68
2022/06/30 09:20:09;;;;;;;7.75;0.90;;;15.20;99.90;;;;;;5031410;28;20029;-69
2022/06/30 09:22:39;;;;;;;5.13;1.10;;;15.30;99.90;;;;;;5027086;28;20088;-68
2022/06/30 09:25:08;;;;;;;7.93;1.25;;;15.40;99.90;;;;;;5040377;28;20116;-68
2022/06/30 09:27:36;;;;;;;8.40;1.63;;;15.40;99.90;;;;;;5035617;28;20102;-69
2022/06/30 09:30:09;;;;;;;7.63;1.63;;;15.50;99.90;;;;;;5037478;28;20040;-69
2022/06/30 09:32:47;;;;;;;4.55;0.80;;;15.50;99.90;;;;;;5039058;28;20028;-67
2022/06/30 09:35:13;;;;;;;6.13;1.05;;;15.40;99.90;;;;;;5034915;28;20089;-68
2022/06/30 09:37:40;;;;;;;7.22;1.40;;;15.40;99.90;;;;;;5033990;28;20045;-67
2022/06/30 09:40:07;;;;;;;6.75;1.40;;;15.40;99.90;;;;;;5028394;28;20022;-68
2022/06/30 09:42:46;;;;;;;5.63;1.17;;;15.40;99.90;;;;;;5029766;28;20037;-68
2022/06/30 09:45:26;;;;;;;4.93;0.82;;;15.40;99.90;;;;;;5034949;28;20652;-68
2022/06/30 09:47:54;;;;;;;6.63;1.08;;;15.40;99.90;;;;;;5031194;28;20116;-68
2022/06/30 09:50:20;;;;;;;6.68;1.10;;;15.40;99.90;;;;;;5035673;28;20045;-67
2022/06/30 09:52:46;;;;;;;5.93;0.82;;;15.40;99.90;;;;;;5033449;28;20029;-68
2022/06/30 09:55:12;;;;;;;3.30;0.75;;;15.40;99.90;;;;;;5035050;28;20040;-68
2022/06/30 09:57:45;;;;;;;4.20;0.90;;;15.40;99.90;;;;;;5027890;28;20544;-68
2022/06/30 10:00:16;;;;;;;4.88;1.02;;;15.30;99.90;;;;;;5034041;28;20030;-69
2022/06/30 10:02:46;;;;;;;6.82;1.05;;;15.40;99.90;;;;;;5036197;28;20078;-68
2022/06/30 10:05:14;;;;;;;3.80;1.10;;;15.40;99.90;;;;;;5028470;28;20132;-69
2022/06/30 10:07:41;;;;;;;4.38;0.90;;;15.40;99.90;;;;;;5026347;28;20449;-72
2022/06/30 10:10:13;;;;;;;6.68;1.02;;;15.40;99.90;;;;;;5026214;28;20712;-72
2022/06/30 10:12:40;;;;;;;4.95;1.00;;;15.40;99.90;;;;;;5027832;28;20065;-71
2022/06/30 10:15:08;;;;;;;5.82;1.05;;;15.40;99.90;;;;;;5027562;28;20033;-71
2022/06/30 10:17:36;;;;;;;5.32;1.25;;;15.40;99.90;;;;;;5026914;28;20033;-73
2022/06/30 10:20:04;;;;;;;6.95;1.20;;;15.40;99.90;;;;;;5039254;28;20076;-72
2022/06/30 10:22:30;;;;;;;5.63;1.00;;;15.50;99.90;;;;;;5036917;28;20037;-69
2022/06/30 10:24:57;;;;;;;6.75;0.90;;;15.50;99.90;;;;;;5038597;28;20558;-72
2022/06/30 10:27:25;;;;;;;7.90;1.10;;;15.60;99.90;;;;;;5039814;28;20029;-71
2022/06/30 10:30:05;;;;;;;7.32;1.20;;;15.60;99.90;;;;;;5036823;28;20087;-71
2022/06/30 10:32:42;;;;;;;5.25;1.13;;;15.50;99.90;;;;;;5033855;28;20041;-69
2022/06/30 10:35:17;;;;;;;5.57;1.20;;;15.60;99.90;;;;;;5038685;28;20041;-70
2022/06/30 10:38:25;;;;;;;6.13;0.95;;;15.60;99.90;;;;;;5038678;28;20041;-69
2022/06/30 10:41:13;;;;;;;5.78;1.13;;;15.60;99.90;;;;;;5042895;28;20037;-69
2022/06/30 10:44:04;;;;;;;5.22;0.90;;;15.60;99.90;;;;;;5027528;28;20030;-71
2022/06/30 10:46:56;;;;;;;5.15;1.13;;;15.60;99.90;;;;;;5018036;28;20049;-72
2022/06/30 10:49:26;;;;;;;7.20;1.50;;;15.60;99.90;;;;;;5039764;28;20526;-72
2022/06/30 10:51:56;;;;;;;9.23;1.40;;;15.60;99.90;;;;;;5048317;28;20132;-72
2022/06/30 10:54:29;;;;;;;6.85;1.60;;;15.60;99.90;;;;;;5040895;28;20052;-71
2022/06/30 10:56:56;;;;;;;6.03;1.33;;;15.60;99.90;;;;;;5047825;28;20040;-71
2022/06/30 10:59:42;;;;;;;11.48;1.65;;;15.60;99.90;;;;;;5047825;28;20049;-70
2022/06/30 11:02:11;;;;;;;7.22;1.10;;;15.60;99.90;;;;;;5045851;28;20053;-72
2022/06/30 11:04:50;;;;;;;6.15;1.10;;;15.50;99.90;;;;;;5025301;28;20052;-68
2022/06/30 11:07:23;;;;;;;7.97;1.48;;;15.50;99.90;;;;;;5036996;28;20041;-68
2022/06/30 11:09:52;;;;;;;8.75;1.35;;;15.60;99.90;;;;;;5033066;28;20037;-68
2022/06/30 11:12:29;;;;;;;4.88;1.33;;;15.60;99.90;;;;;;5035570;28;20061;-68
2022/06/30 11:14:57;;;;;;;5.32;1.05;;;15.70;99.90;;;;;;5047535;28;20041;-68
2022/06/30 11:17:28;;;;;;;10.32;1.42;;;15.70;99.90;;;;;;5043553;28;20069;-68
2022/06/30 11:20:01;;;;;;;4.57;1.00;;;15.80;99.90;;;;;;5039315;28;20090;-68
2022/06/30 11:22:28;;;;;;;5.28;1.00;;;16.10;99.90;;;;;;5038348;28;20724;-68
2022/06/30 11:24:57;;;;;;;10.05;1.35;;;16.10;99.90;;;;;;5045014;28;20652;-68
2022/06/30 11:27:25;;;;;;;8.23;1.35;;;16.20;99.90;;;;;;5049656;28;20033;-69
2022/06/30 11:30:08;;;;;;;6.80;1.50;;;16.30;99.90;;;;;;5034008;28;20029;-68
2022/06/30 11:32:34;;;;;;;8.55;1.25;;;16.20;99.90;;;;;;5029981;28;20041;-68
2022/06/30 11:35:00;;;;;;;8.43;1.50;;;16.20;99.90;;;;;;5029669;28;20115;-69
2022/06/30 11:37:28;;;;;;;4.80;1.23;;;16.20;99.90;;;;;;5030110;28;20041;-68
2022/06/30 11:40:03;;;;;;;6.35;1.25;;;16.10;99.90;;;;;;5029869;28;20029;-68
2022/06/30 11:42:29;;;;;;;5.65;1.13;;;16.10;99.90;;;;;;5039044;28;20026;-69
2022/06/30 11:44:55;;;;;;;6.78;1.25;;;16.00;99.90;;;;;;5038147;28;20029;-69
2022/06/30 11:47:22;;;;;;;6.63;1.25;;;16.00;99.90;;;;;;5034061;28;20094;-68
2022/06/30 11:49:52;;;;;;;6.82;1.08;;;16.10;99.90;;;;;;5031945;28;20041;-68
2022/06/30 11:52:28;;;;;;;7.88;1.52;;;16.10;99.90;;;;;;5035850;28;20483;-68
2022/06/30 11:54:55;;;;;;;5.60;1.08;;;16.20;99.90;;;;;;5039798;28;20062;-68
2022/06/30 11:57:32;;;;;;;5.68;1.10;;;16.20;99.90;;;;;;5030581;28;20923;-68
2022/06/30 12:00:04;;;;;;;5.88;1.30;;;16.20;99.90;;;;;;5030547;28;20564;-68
2022/06/30 12:02:32;;;;;;;7.65;1.15;;;16.20;99.90;;;;;;5034045;28;20125;-72
2022/06/30 12:05:00;;;;;;;5.40;0.90;;;16.30;99.90;;;;;;5033714;28;20056;-72
2022/06/30 12:07:27;;;;;;;6.75;1.20;;;16.40;99.90;;;;;;5042691;28;20483;-72
2022/06/30 12:09:54;;;;;;;5.93;1.20;;;16.40;99.90;;;;;;5031620;28;20033;-69
2022/06/30 12:12:25;;;;;;;6.55;1.08;;;16.40;99.90;;;;;;5036712;28;20032;-73
2022/06/30 12:14:56;;;;;;;7.25;1.55;;;16.30;99.90;;;;;;5032174;28;20041;-71
2022/06/30 12:17:23;;;;;;;6.55;1.13;;;16.20;99.90;;;;;;5033579;28;20037;-70
2022/06/30 12:19:51;;;;;;;5.78;0.90;;;16.10;99.90;;;;;;5035229;28;20036;-73
2022/06/30 12:22:17;;;;;;;4.97;0.90;;;16.10;99.90;;;;;;5034445;28;20031;-73
2022/06/30 12:24:46;;;;;;;6.10;1.40;;;16.10;99.90;;;;;;5050381;28;20792;-72
2022/06/30 12:27:32;;;;;;;7.05;1.13;;;16.00;99.90;;;;;;5039218;28;20068;-71
2022/06/30 12:30:00;;;;;;;8.15;1.50;;;16.00;99.90;;;;;;5031995;28;20048;-70
2022/06/30 12:32:28;;;;;;;9.48;1.45;;;16.00;99.90;;;;;;5039927;28;20028;-70
2022/06/30 12:34:56;;;;;;;6.75;1.42;;;16.10;99.90;;;;;;5035530;28;20036;-71
2022/06/30 12:37:34;;;;;;;6.70;1.48;;;16.20;99.90;;;;;;5032391;28;20037;-68
2022/06/30 12:40:03;;;;;;;7.43;1.20;;;16.40;99.90;;;;;;5030629;28;20041;-68
2022/06/30 12:42:47;;;;;;;7.70;1.27;;;16.40;99.90;;;;;;5048034;28;20029;-68
2022/06/30 12:45:56;;;;;;;6.22;1.13;;;16.40;99.90;;;;;;5037775;28;20518;-68
2022/06/30 12:48:43;;;;;;;8.52;1.67;;;16.50;99.90;;;;;;5034747;28;20025;-68
2022/06/30 12:51:32;;;;;;;7.00;1.60;;;16.40;99.90;;;;;;5046050;28;20037;-67
2022/06/30 12:54:06;;;;;;;7.57;1.40;;;16.40;99.90;;;;;;5029270;28;20045;-68
2022/06/30 12:56:33;;;;;;;5.97;1.13;;;16.40;99.90;;;;;;5031995;28;20029;-67
2022/06/30 12:59:12;;;;;;;6.18;1.10;;;16.40;99.90;;;;;;5029156;28;20076;-68
2022/06/30 13:01:41;;;;;;;6.23;1.30;;;16.50;99.90;;;;;;5032992;28;20044;-67